sensor_id;sensor_type;location;lat;lon;timestamp;temperature;humidity
53412;DHT22;39307;52.870;13.660;2023-12-20T00:00:20;6.40;65.60
53412;DHT22;39307;52.870;13.660;2023-12-20T00:02:47;6.30;65.70
53412;DHT22;39307;52.870;13.660;2023-12-20T00:05:14;6.40;65.80
53412;DHT22;39307;52.870;13.660;2023-12-20T00:07:41;6.30;65.70
53412;DHT22;39307;52.870;13.660;2023-12-20T00:10:08;6.30;65.70
53412;DHT22;39307;52.870;13.660;2023-12-20T00:12:35;6.40;65.80
53412;DHT22;39307;52.870;13.660;2023-12-20T00:15:02;6.30;65.70
53412;DHT22;39307;52.870;13.660;2023-12-20T00:17:29;6.40;65.70
53412;DHT22;39307;52.870;13.660;2023-12-20T00:19:56;6.40;65.70
53412;DHT22;39307;52.870;13.660;2023-12-20T00:22:23;6.30;65.70
53412;DHT22;39307;52.870;13.660;2023-12-20T00:24:50;6.40;65.80
53412;DHT22;39307;52.870;13.660;2023-12-20T00:27:17;6.30;65.90
53412;DHT22;39307;52.870;13.660;2023-12-20T00:29:44;6.30;65.90
53412;DHT22;39307;52.870;13.660;2023-12-20T00:32:11;6.30;65.70
53412;DHT22;39307;52.870;13.660;2023-12-20T00:34:37;6.40;65.70
53412;DHT22;39307;52.870;13.660;2023-12-20T00:37:04;6.30;65.70
53412;DHT22;39307;52.870;13.660;2023-12-20T00:39:31;6.40;65.80
53412;DHT22;39307;52.870;13.660;2023-12-20T00:41:58;6.40;65.80
53412;DHT22;39307;52.870;13.660;2023-12-20T00:44:25;6.40;66.20
53412;DHT22;39307;52.870;13.660;2023-12-20T00:46:51;6.30;65.90
53412;DHT22;39307;52.870;13.660;2023-12-20T00:49:18;6.40;66.00
53412;DHT22;39307;52.870;13.660;2023-12-20T00:51:45;6.40;65.90
53412;DHT22;39307;52.870;13.660;2023-12-20T00:54:12;6.30;66.10
53412;DHT22;39307;52.870;13.660;2023-12-20T00:56:41;6.40;66.10
53412;DHT22;39307;52.870;13.660;2023-12-20T00:59:08;6.40;65.90
53412;DHT22;39307;52.870;13.660;2023-12-20T01:01:35;6.40;65.80
53412;DHT22;39307;52.870;13.660;2023-12-20T01:04:02;6.40;65.90
53412;DHT22;39307;52.870;13.660;2023-12-20T01:06:30;6.40;66.00
53412;DHT22;39307;52.870;13.660;2023-12-20T01:08:57;6.40;65.90
53412;DHT22;39307;52.870;13.660;2023-12-20T01:11:23;6.40;66.50
53412;DHT22;39307;52.870;13.660;2023-12-20T01:13:50;6.40;66.80
53412;DHT22;39307;52.870;13.660;2023-12-20T01:16:17;6.40;66.80
53412;DHT22;39307;52.870;13.660;2023-12-20T01:18:43;6.40;66.50
53412;DHT22;39307;52.870;13.660;2023-12-20T01:21:10;6.40;66.60
53412;DHT22;39307;52.870;13.660;2023-12-20T01:23:37;6.40;66.40
53412;DHT22;39307;52.870;13.660;2023-12-20T01:26:04;6.30;66.40
53412;DHT22;39307;52.870;13.660;2023-12-20T01:28:31;6.40;66.60
53412;DHT22;39307;52.870;13.660;2023-12-20T01:30:58;6.40;66.40
53412;DHT22;39307;52.870;13.660;2023-12-20T01:33:25;6.40;66.70
53412;DHT22;39307;52.870;13.660;2023-12-20T01:35:52;6.40;66.40
53412;DHT22;39307;52.870;13.660;2023-12-20T01:38:19;6.40;66.40
53412;DHT22;39307;52.870;13.660;2023-12-20T01:40:46;6.40;66.40
53412;DHT22;39307;52.870;13.660;2023-12-20T01:43:13;6.40;66.20
53412;DHT22;39307;52.870;13.660;2023-12-20T01:45:40;6.40;66.20
53412;DHT22;39307;52.870;13.660;2023-12-20T01:48:08;6.30;66.10
53412;DHT22;39307;52.870;13.660;2023-12-20T01:50:36;6.30;66.20
53412;DHT22;39307;52.870;13.660;2023-12-20T01:53:04;6.40;66.20
53412;DHT22;39307;52.870;13.660;2023-12-20T01:55:33;6.40;66.30
53412;DHT22;39307;52.870;13.660;2023-12-20T01:58:01;6.40;66.70
53412;DHT22;39307;52.870;13.660;2023-12-20T02:00:29;6.40;66.50
53412;DHT22;39307;52.870;13.660;2023-12-20T02:02:59;6.40;66.90
53412;DHT22;39307;52.870;13.660;2023-12-20T02:05:29;6.40;66.50
53412;DHT22;39307;52.870;13.660;2023-12-20T02:07:57;6.40;66.30
53412;DHT22;39307;52.870;13.660;2023-12-20T02:10:24;6.40;66.20
53412;DHT22;39307;52.870;13.660;2023-12-20T02:12:51;6.40;66.20
53412;DHT22;39307;52.870;13.660;2023-12-20T02:15:18;6.40;66.20
53412;DHT22;39307;52.870;13.660;2023-12-20T02:17:46;6.40;66.20
53412;DHT22;39307;52.870;13.660;2023-12-20T02:20:14;6.40;66.40
53412;DHT22;39307;52.870;13.660;2023-12-20T02:22:41;6.40;66.10
53412;DHT22;39307;52.870;13.660;2023-12-20T02:25:08;6.40;66.10
53412;DHT22;39307;52.870;13.660;2023-12-20T02:27:35;6.40;66.40
53412;DHT22;39307;52.870;13.660;2023-12-20T02:30:02;6.40;66.40
53412;DHT22;39307;52.870;13.660;2023-12-20T02:32:30;6.40;66.20
53412;DHT22;39307;52.870;13.660;2023-12-20T02:34:57;6.40;66.10
53412;DHT22;39307;52.870;13.660;2023-12-20T02:37:24;6.40;66.00
53412;DHT22;39307;52.870;13.660;2023-12-20T02:39:52;6.40;66.00
53412;DHT22;39307;52.870;13.660;2023-12-20T02:42:19;6.40;65.90
53412;DHT22;39307;52.870;13.660;2023-12-20T02:44:46;6.40;65.80
53412;DHT22;39307;52.870;13.660;2023-12-20T02:47:13;6.40;65.80
53412;DHT22;39307;52.870;13.660;2023-12-20T02:49:40;6.40;65.80
53412;DHT22;39307;52.870;13.660;2023-12-20T02:52:06;6.40;65.80
53412;DHT22;39307;52.870;13.660;2023-12-20T02:54:33;6.40;65.90
53412;DHT22;39307;52.870;13.660;2023-12-20T02:57:00;6.40;65.80
53412;DHT22;39307;52.870;13.660;2023-12-20T02:59:27;6.40;65.90
53412;DHT22;39307;52.870;13.660;2023-12-20T03:01:54;6.40;65.90
53412;DHT22;39307;52.870;13.660;2023-12-20T03:04:21;6.40;65.90
53412;DHT22;39307;52.870;13.660;2023-12-20T03:06:48;6.40;66.00
53412;DHT22;39307;52.870;13.660;2023-12-20T03:09:15;6.40;65.90
53412;DHT22;39307;52.870;13.660;2023-12-20T03:11:42;6.40;65.90
53412;DHT22;39307;52.870;13.660;2023-12-20T03:14:09;6.40;65.90
53412;DHT22;39307;52.870;13.660;2023-12-20T03:16:36;6.40;65.90
53412;DHT22;39307;52.870;13.660;2023-12-20T03:19:03;6.40;65.80
53412;DHT22;39307;52.870;13.660;2023-12-20T03:21:30;6.40;65.80
53412;DHT22;39307;52.870;13.660;2023-12-20T03:23:57;6.40;65.90
53412;DHT22;39307;52.870;13.660;2023-12-20T03:26:24;6.40;65.80
53412;DHT22;39307;52.870;13.660;2023-12-20T03:28:51;6.40;66.00
53412;DHT22;39307;52.870;13.660;2023-12-20T03:31:18;6.40;65.90
53412;DHT22;39307;52.870;13.660;2023-12-20T03:33:45;6.40;66.10
53412;DHT22;39307;52.870;13.660;2023-12-20T03:36:12;6.40;65.90
53412;DHT22;39307;52.870;13.660;2023-12-20T03:38:39;6.40;65.80
53412;DHT22;39307;52.870;13.660;2023-12-20T03:41:07;6.40;65.70
53412;DHT22;39307;52.870;13.660;2023-12-20T03:43:34;6.40;65.70
53412;DHT22;39307;52.870;13.660;2023-12-20T03:46:01;6.40;65.70
53412;DHT22;39307;52.870;13.660;2023-12-20T03:48:29;6.40;65.70
53412;DHT22;39307;52.870;13.660;2023-12-20T03:50:57;6.40;65.70
53412;DHT22;39307;52.870;13.660;2023-12-20T03:53:23;6.40;65.70
53412;DHT22;39307;52.870;13.660;2023-12-20T03:55:50;6.40;65.90
53412;DHT22;39307;52.870;13.660;2023-12-20T03:58:17;6.40;65.90
53412;DHT22;39307;52.870;13.660;2023-12-20T04:00:44;6.40;65.70
53412;DHT22;39307;52.870;13.660;2023-12-20T04:03:11;6.40;65.80
53412;DHT22;39307;52.870;13.660;2023-12-20T04:05:38;6.40;65.70
53412;DHT22;39307;52.870;13.660;2023-12-20T04:08:06;6.40;65.70
53412;DHT22;39307;52.870;13.660;2023-12-20T04:10:33;6.40;65.70
53412;DHT22;39307;52.870;13.660;2023-12-20T04:13:00;6.40;65.80
53412;DHT22;39307;52.870;13.660;2023-12-20T04:15:27;6.40;65.70
53412;DHT22;39307;52.870;13.660;2023-12-20T04:17:54;6.40;65.80
53412;DHT22;39307;52.870;13.660;2023-12-20T04:20:21;6.40;65.80
53412;DHT22;39307;52.870;13.660;2023-12-20T04:22:48;6.40;65.70
53412;DHT22;39307;52.870;13.660;2023-12-20T04:25:15;6.40;65.70
53412;DHT22;39307;52.870;13.660;2023-12-20T04:27:42;6.40;65.60
53412;DHT22;39307;52.870;13.660;2023-12-20T04:30:09;6.40;65.60
53412;DHT22;39307;52.870;13.660;2023-12-20T04:32:36;6.40;65.60
53412;DHT22;39307;52.870;13.660;2023-12-20T04:35:04;6.40;65.60
53412;DHT22;39307;52.870;13.660;2023-12-20T04:37:31;6.40;65.60
53412;DHT22;39307;52.870;13.660;2023-12-20T04:39:58;6.40;65.70
53412;DHT22;39307;52.870;13.660;2023-12-20T04:42:24;6.40;65.60
53412;DHT22;39307;52.870;13.660;2023-12-20T04:44:51;6.40;65.60
53412;DHT22;39307;52.870;13.660;2023-12-20T04:47:18;6.40;65.60
53412;DHT22;39307;52.870;13.660;2023-12-20T04:49:45;6.40;65.60
53412;DHT22;39307;52.870;13.660;2023-12-20T04:52:12;6.40;65.60
53412;DHT22;39307;52.870;13.660;2023-12-20T04:54:40;6.40;65.60
53412;DHT22;39307;52.870;13.660;2023-12-20T04:57:07;6.30;65.70
53412;DHT22;39307;52.870;13.660;2023-12-20T04:59:34;6.40;66.10
53412;DHT22;39307;52.870;13.660;2023-12-20T05:02:01;6.40;65.90
53412;DHT22;39307;52.870;13.660;2023-12-20T05:04:27;6.40;66.10
53412;DHT22;39307;52.870;13.660;2023-12-20T05:06:54;6.40;65.90
53412;DHT22;39307;52.870;13.660;2023-12-20T05:09:21;6.40;65.90
53412;DHT22;39307;52.870;13.660;2023-12-20T05:11:48;6.40;65.90
53412;DHT22;39307;52.870;13.660;2023-12-20T05:14:15;6.40;66.20
53412;DHT22;39307;52.870;13.660;2023-12-20T05:16:42;6.40;66.10
53412;DHT22;39307;52.870;13.660;2023-12-20T05:19:09;6.40;65.90
53412;DHT22;39307;52.870;13.660;2023-12-20T05:21:36;6.40;65.90
53412;DHT22;39307;52.870;13.660;2023-12-20T05:24:03;6.40;65.80
53412;DHT22;39307;52.870;13.660;2023-12-20T05:26:31;6.40;65.80
53412;DHT22;39307;52.870;13.660;2023-12-20T05:28:57;6.40;65.70
53412;DHT22;39307;52.870;13.660;2023-12-20T05:31:24;6.40;65.70
53412;DHT22;39307;52.870;13.660;2023-12-20T05:33:51;6.40;65.70
53412;DHT22;39307;52.870;13.660;2023-12-20T05:36:18;6.40;65.70
53412;DHT22;39307;52.870;13.660;2023-12-20T05:38:45;6.40;65.60
53412;DHT22;39307;52.870;13.660;2023-12-20T05:41:12;6.40;65.70
53412;DHT22;39307;52.870;13.660;2023-12-20T05:43:39;6.40;65.70
53412;DHT22;39307;52.870;13.660;2023-12-20T05:46:06;6.40;65.60
53412;DHT22;39307;52.870;13.660;2023-12-20T05:48:33;6.40;65.70
53412;DHT22;39307;52.870;13.660;2023-12-20T05:51:00;6.40;65.60
53412;DHT22;39307;52.870;13.660;2023-12-20T05:53:27;6.40;65.60
53412;DHT22;39307;52.870;13.660;2023-12-20T05:55:54;6.40;65.60
53412;DHT22;39307;52.870;13.660;2023-12-20T05:58:20;6.40;65.60
53412;DHT22;39307;52.870;13.660;2023-12-20T06:00:47;6.40;65.60
53412;DHT22;39307;52.870;13.660;2023-12-20T06:03:14;6.40;65.60
53412;DHT22;39307;52.870;13.660;2023-12-20T06:05:41;6.40;65.60
53412;DHT22;39307;52.870;13.660;2023-12-20T06:08:08;6.40;65.60
53412;DHT22;39307;52.870;13.660;2023-12-20T06:10:35;6.40;65.70
53412;DHT22;39307;52.870;13.660;2023-12-20T06:13:02;6.40;65.60
53412;DHT22;39307;52.870;13.660;2023-12-20T06:15:29;6.40;65.60
53412;DHT22;39307;52.870;13.660;2023-12-20T06:17:56;6.40;65.60
53412;DHT22;39307;52.870;13.660;2023-12-20T06:20:23;6.40;65.60
53412;DHT22;39307;52.870;13.660;2023-12-20T06:22:50;6.30;65.60
53412;DHT22;39307;52.870;13.660;2023-12-20T06:25:17;6.40;65.60
53412;DHT22;39307;52.870;13.660;2023-12-20T06:27:44;6.40;65.80
53412;DHT22;39307;52.870;13.660;2023-12-20T06:30:10;6.30;65.70
53412;DHT22;39307;52.870;13.660;2023-12-20T06:32:37;6.40;65.70
53412;DHT22;39307;52.870;13.660;2023-12-20T06:35:04;6.40;65.70
53412;DHT22;39307;52.870;13.660;2023-12-20T06:37:32;6.40;65.70
53412;DHT22;39307;52.870;13.660;2023-12-20T06:39:59;6.40;65.60
53412;DHT22;39307;52.870;13.660;2023-12-20T06:42:26;6.30;65.70
53412;DHT22;39307;52.870;13.660;2023-12-20T06:44:53;6.40;65.70
53412;DHT22;39307;52.870;13.660;2023-12-20T06:47:19;6.40;65.70
53412;DHT22;39307;52.870;13.660;2023-12-20T06:49:46;6.30;65.70
53412;DHT22;39307;52.870;13.660;2023-12-20T06:52:13;6.30;65.70
53412;DHT22;39307;52.870;13.660;2023-12-20T06:54:40;6.30;65.60
53412;DHT22;39307;52.870;13.660;2023-12-20T06:57:07;6.40;65.70
53412;DHT22;39307;52.870;13.660;2023-12-20T06:59:42;6.40;65.70
53412;DHT22;39307;52.870;13.660;2023-12-20T07:02:09;6.40;65.70
53412;DHT22;39307;52.870;13.660;2023-12-20T07:04:42;6.40;65.70
53412;DHT22;39307;52.870;13.660;2023-12-20T07:07:09;6.40;65.70
53412;DHT22;39307;52.870;13.660;2023-12-20T07:09:36;6.40;65.70
53412;DHT22;39307;52.870;13.660;2023-12-20T07:12:03;6.30;65.70
53412;DHT22;39307;52.870;13.660;2023-12-20T07:14:30;6.30;65.70
53412;DHT22;39307;52.870;13.660;2023-12-20T07:16:57;6.40;65.70
53412;DHT22;39307;52.870;13.660;2023-12-20T07:19:24;6.30;65.70
53412;DHT22;39307;52.870;13.660;2023-12-20T07:21:51;6.30;65.80
53412;DHT22;39307;52.870;13.660;2023-12-20T07:24:18;6.40;65.70
53412;DHT22;39307;52.870;13.660;2023-12-20T07:26:45;6.40;65.70
53412;DHT22;39307;52.870;13.660;2023-12-20T07:29:11;6.40;65.80
53412;DHT22;39307;52.870;13.660;2023-12-20T07:31:38;6.40;65.70
53412;DHT22;39307;52.870;13.660;2023-12-20T07:34:05;6.30;65.80
53412;DHT22;39307;52.870;13.660;2023-12-20T07:36:32;6.30;65.90
53412;DHT22;39307;52.870;13.660;2023-12-20T07:38:59;6.30;65.90
53412;DHT22;39307;52.870;13.660;2023-12-20T07:41:26;6.40;65.80
53412;DHT22;39307;52.870;13.660;2023-12-20T07:43:53;6.40;65.80
53412;DHT22;39307;52.870;13.660;2023-12-20T07:46:21;6.30;65.80
53412;DHT22;39307;52.870;13.660;2023-12-20T07:48:49;6.30;65.80
53412;DHT22;39307;52.870;13.660;2023-12-20T07:51:16;6.30;65.80
53412;DHT22;39307;52.870;13.660;2023-12-20T07:53:43;6.40;65.80
53412;DHT22;39307;52.870;13.660;2023-12-20T07:56:20;6.30;65.70
53412;DHT22;39307;52.870;13.660;2023-12-20T07:58:48;6.40;65.80
53412;DHT22;39307;52.870;13.660;2023-12-20T08:01:16;6.40;65.80
53412;DHT22;39307;52.870;13.660;2023-12-20T08:03:43;6.40;65.80
53412;DHT22;39307;52.870;13.660;2023-12-20T08:06:10;6.30;65.80
53412;DHT22;39307;52.870;13.660;2023-12-20T08:08:37;6.40;65.80
53412;DHT22;39307;52.870;13.660;2023-12-20T08:11:04;6.30;65.80
53412;DHT22;39307;52.870;13.660;2023-12-20T08:13:31;6.40;65.80
53412;DHT22;39307;52.870;13.660;2023-12-20T08:15:58;6.30;65.90
53412;DHT22;39307;52.870;13.660;2023-12-20T08:18:24;6.30;65.90
53412;DHT22;39307;52.870;13.660;2023-12-20T08:20:51;6.30;65.90
53412;DHT22;39307;52.870;13.660;2023-12-20T08:23:18;6.40;65.90
53412;DHT22;39307;52.870;13.660;2023-12-20T08:25:45;6.30;65.80
53412;DHT22;39307;52.870;13.660;2023-12-20T08:28:12;6.30;66.10
53412;DHT22;39307;52.870;13.660;2023-12-20T08:30:39;6.30;65.90
53412;DHT22;39307;52.870;13.660;2023-12-20T08:33:06;6.30;65.80
53412;DHT22;39307;52.870;13.660;2023-12-20T08:35:33;6.40;66.00
53412;DHT22;39307;52.870;13.660;2023-12-20T08:38:01;6.30;65.90
53412;DHT22;39307;52.870;13.660;2023-12-20T08:40:28;6.30;65.90
53412;DHT22;39307;52.870;13.660;2023-12-20T08:42:55;6.30;66.00
53412;DHT22;39307;52.870;13.660;2023-12-20T08:45:21;6.30;66.00
53412;DHT22;39307;52.870;13.660;2023-12-20T08:47:48;6.30;65.90
53412;DHT22;39307;52.870;13.660;2023-12-20T08:50:15;6.30;65.90
53412;DHT22;39307;52.870;13.660;2023-12-20T08:52:42;6.30;66.00
53412;DHT22;39307;52.870;13.660;2023-12-20T08:55:09;6.30;65.80
53412;DHT22;39307;52.870;13.660;2023-12-20T08:57:36;6.30;65.90
53412;DHT22;39307;52.870;13.660;2023-12-20T09:00:03;6.30;65.90
53412;DHT22;39307;52.870;13.660;2023-12-20T09:02:31;6.30;65.90
53412;DHT22;39307;52.870;13.660;2023-12-20T09:04:58;6.30;66.00
53412;DHT22;39307;52.870;13.660;2023-12-20T09:07:26;6.30;66.00
53412;DHT22;39307;52.870;13.660;2023-12-20T09:09:53;6.30;66.10
53412;DHT22;39307;52.870;13.660;2023-12-20T09:12:20;6.30;66.00
53412;DHT22;39307;52.870;13.660;2023-12-20T09:14:48;6.30;66.00
53412;DHT22;39307;52.870;13.660;2023-12-20T09:17:16;6.30;66.00
53412;DHT22;39307;52.870;13.660;2023-12-20T09:19:43;6.30;66.00
53412;DHT22;39307;52.870;13.660;2023-12-20T09:22:11;6.30;66.00
53412;DHT22;39307;52.870;13.660;2023-12-20T09:24:38;6.30;66.00
53412;DHT22;39307;52.870;13.660;2023-12-20T09:27:05;6.30;66.00
53412;DHT22;39307;52.870;13.660;2023-12-20T09:29:32;6.30;66.00
53412;DHT22;39307;52.870;13.660;2023-12-20T09:31:59;6.30;66.10
53412;DHT22;39307;52.870;13.660;2023-12-20T09:34:26;6.30;66.10
53412;DHT22;39307;52.870;13.660;2023-12-20T09:36:53;6.30;66.00
53412;DHT22;39307;52.870;13.660;2023-12-20T09:39:21;6.30;66.20
53412;DHT22;39307;52.870;13.660;2023-12-20T09:42:05;6.30;66.00
53412;DHT22;39307;52.870;13.660;2023-12-20T09:44:33;6.30;66.10
53412;DHT22;39307;52.870;13.660;2023-12-20T09:47:03;6.30;66.10
53412;DHT22;39307;52.870;13.660;2023-12-20T09:49:31;6.30;66.20
53412;DHT22;39307;52.870;13.660;2023-12-20T09:52:00;6.30;66.10
53412;DHT22;39307;52.870;13.660;2023-12-20T09:54:28;6.30;66.00
53412;DHT22;39307;52.870;13.660;2023-12-20T09:56:55;6.30;66.10
53412;DHT22;39307;52.870;13.660;2023-12-20T09:59:22;6.30;66.10
53412;DHT22;39307;52.870;13.660;2023-12-20T10:01:50;6.30;66.20
53412;DHT22;39307;52.870;13.660;2023-12-20T10:04:18;6.30;66.10
53412;DHT22;39307;52.870;13.660;2023-12-20T10:06:45;6.30;66.30
53412;DHT22;39307;52.870;13.660;2023-12-20T10:09:12;6.30;66.20
53412;DHT22;39307;52.870;13.660;2023-12-20T10:11:40;6.30;66.20
53412;DHT22;39307;52.870;13.660;2023-12-20T10:14:07;6.30;66.30
53412;DHT22;39307;52.870;13.660;2023-12-20T10:16:34;6.30;66.30
53412;DHT22;39307;52.870;13.660;2023-12-20T10:19:01;6.30;66.30
53412;DHT22;39307;52.870;13.660;2023-12-20T10:21:28;6.30;66.20
53412;DHT22;39307;52.870;13.660;2023-12-20T10:23:56;6.30;66.40
53412;DHT22;39307;52.870;13.660;2023-12-20T10:26:28;6.30;66.30
53412;DHT22;39307;52.870;13.660;2023-12-20T10:28:59;6.30;66.30
53412;DHT22;39307;52.870;13.660;2023-12-20T10:31:32;6.30;66.30
53412;DHT22;39307;52.870;13.660;2023-12-20T10:34:01;6.30;66.30
53412;DHT22;39307;52.870;13.660;2023-12-20T10:36:31;6.30;66.10
53412;DHT22;39307;52.870;13.660;2023-12-20T10:38:59;6.30;66.20
53412;DHT22;39307;52.870;13.660;2023-12-20T10:41:31;6.30;66.20
53412;DHT22;39307;52.870;13.660;2023-12-20T10:44:01;6.30;66.40
53412;DHT22;39307;52.870;13.660;2023-12-20T10:46:30;6.30;66.10
53412;DHT22;39307;52.870;13.660;2023-12-20T10:48:57;6.30;66.20
53412;DHT22;39307;52.870;13.660;2023-12-20T10:51:25;6.30;66.40
53412;DHT22;39307;52.870;13.660;2023-12-20T10:53:52;6.30;66.20
53412;DHT22;39307;52.870;13.660;2023-12-20T10:56:22;6.30;66.20
53412;DHT22;39307;52.870;13.660;2023-12-20T10:58:50;6.30;66.20
53412;DHT22;39307;52.870;13.660;2023-12-20T11:01:18;6.30;66.10
53412;DHT22;39307;52.870;13.660;2023-12-20T11:03:50;6.30;66.20
53412;DHT22;39307;52.870;13.660;2023-12-20T11:06:35;6.30;66.20
53412;DHT22;39307;52.870;13.660;2023-12-20T11:09:22;6.30;66.40
53412;DHT22;39307;52.870;13.660;2023-12-20T11:12:20;6.30;66.20
53412;DHT22;39307;52.870;13.660;2023-12-20T11:14:54;6.30;66.50
53412;DHT22;39307;52.870;13.660;2023-12-20T11:17:21;6.30;66.30
53412;DHT22;39307;52.870;13.660;2023-12-20T11:22:29;6.30;66.40
53412;DHT22;39307;52.870;13.660;2023-12-20T11:25:09;6.30;66.50
53412;DHT22;39307;52.870;13.660;2023-12-20T11:27:40;6.30;66.40
53412;DHT22;39307;52.870;13.660;2023-12-20T11:30:09;6.30;66.50
53412;DHT22;39307;52.870;13.660;2023-12-20T11:32:37;6.30;66.70
53412;DHT22;39307;52.870;13.660;2023-12-20T11:37:38;6.30;66.30
53412;DHT22;39307;52.870;13.660;2023-12-20T11:40:11;6.30;66.70
53412;DHT22;39307;52.870;13.660;2023-12-20T11:42:42;6.30;66.20
53412;DHT22;39307;52.870;13.660;2023-12-20T11:45:17;6.30;66.50
53412;DHT22;39307;52.870;13.660;2023-12-20T11:47:49;6.30;66.40
53412;DHT22;39307;52.870;13.660;2023-12-20T11:50:17;6.30;66.50
53412;DHT22;39307;52.870;13.660;2023-12-20T11:52:45;6.30;66.50
53412;DHT22;39307;52.870;13.660;2023-12-20T11:55:12;6.30;66.40
53412;DHT22;39307;52.870;13.660;2023-12-20T11:57:39;6.30;66.60
53412;DHT22;39307;52.870;13.660;2023-12-20T12:00:06;6.30;66.80
53412;DHT22;39307;52.870;13.660;2023-12-20T12:02:33;6.30;66.40
53412;DHT22;39307;52.870;13.660;2023-12-20T12:05:01;6.20;66.50
53412;DHT22;39307;52.870;13.660;2023-12-20T12:07:28;6.30;66.50
53412;DHT22;39307;52.870;13.660;2023-12-20T12:09:55;6.30;66.40
53412;DHT22;39307;52.870;13.660;2023-12-20T12:12:22;6.30;66.50
53412;DHT22;39307;52.870;13.660;2023-12-20T12:14:49;6.30;66.60
53412;DHT22;39307;52.870;13.660;2023-12-20T12:17:16;6.30;66.50
53412;DHT22;39307;52.870;13.660;2023-12-20T12:19:43;6.30;66.50
53412;DHT22;39307;52.870;13.660;2023-12-20T12:22:14;6.30;66.60
53412;DHT22;39307;52.870;13.660;2023-12-20T12:24:43;6.30;66.60
53412;DHT22;39307;52.870;13.660;2023-12-20T12:27:11;6.30;66.70
53412;DHT22;39307;52.870;13.660;2023-12-20T12:29:39;6.30;66.40
53412;DHT22;39307;52.870;13.660;2023-12-20T12:32:10;6.30;66.50
53412;DHT22;39307;52.870;13.660;2023-12-20T12:34:37;6.30;66.40
53412;DHT22;39307;52.870;13.660;2023-12-20T12:37:04;6.30;66.60
53412;DHT22;39307;52.870;13.660;2023-12-20T12:39:31;6.30;66.50
53412;DHT22;39307;52.870;13.660;2023-12-20T12:41:58;6.30;66.50
53412;DHT22;39307;52.870;13.660;2023-12-20T12:44:25;6.30;66.40
53412;DHT22;39307;52.870;13.660;2023-12-20T12:46:53;6.30;66.50
53412;DHT22;39307;52.870;13.660;2023-12-20T12:49:24;6.30;66.50
53412;DHT22;39307;52.870;13.660;2023-12-20T12:51:51;6.30;66.60
53412;DHT22;39307;52.870;13.660;2023-12-20T12:54:19;6.30;66.60
53412;DHT22;39307;52.870;13.660;2023-12-20T12:56:46;6.30;66.90
53412;DHT22;39307;52.870;13.660;2023-12-20T12:59:13;6.30;66.60
53412;DHT22;39307;52.870;13.660;2023-12-20T13:01:40;6.30;66.60
53412;DHT22;39307;52.870;13.660;2023-12-20T13:04:07;6.20;66.60
53412;DHT22;39307;52.870;13.660;2023-12-20T13:06:34;6.30;66.80
53412;DHT22;39307;52.870;13.660;2023-12-20T13:09:01;6.20;66.70
53412;DHT22;39307;52.870;13.660;2023-12-20T13:11:28;6.30;66.70
53412;DHT22;39307;52.870;13.660;2023-12-20T13:13:55;6.30;66.70
53412;DHT22;39307;52.870;13.660;2023-12-20T13:16:22;6.30;66.80
53412;DHT22;39307;52.870;13.660;2023-12-20T13:18:49;6.30;66.60
53412;DHT22;39307;52.870;13.660;2023-12-20T13:21:16;6.30;66.70
53412;DHT22;39307;52.870;13.660;2023-12-20T13:23:43;6.30;66.90
53412;DHT22;39307;52.870;13.660;2023-12-20T13:26:10;6.30;66.80
53412;DHT22;39307;52.870;13.660;2023-12-20T13:28:36;6.30;66.80
53412;DHT22;39307;52.870;13.660;2023-12-20T13:31:03;6.30;66.90
53412;DHT22;39307;52.870;13.660;2023-12-20T13:33:30;6.30;66.70
53412;DHT22;39307;52.870;13.660;2023-12-20T13:35:57;6.30;66.90
53412;DHT22;39307;52.870;13.660;2023-12-20T13:38:24;6.20;67.00
53412;DHT22;39307;52.870;13.660;2023-12-20T13:40:51;6.20;67.00
53412;DHT22;39307;52.870;13.660;2023-12-20T13:43:18;6.30;66.80
53412;DHT22;39307;52.870;13.660;2023-12-20T13:45:45;6.20;66.70
53412;DHT22;39307;52.870;13.660;2023-12-20T13:48:12;6.20;67.00
53412;DHT22;39307;52.870;13.660;2023-12-20T13:50:38;6.20;66.70
53412;DHT22;39307;52.870;13.660;2023-12-20T13:53:05;6.20;66.90
53412;DHT22;39307;52.870;13.660;2023-12-20T13:55:32;6.30;66.70
53412;DHT22;39307;52.870;13.660;2023-12-20T13:57:59;6.20;66.60
53412;DHT22;39307;52.870;13.660;2023-12-20T14:00:26;6.30;66.80
53412;DHT22;39307;52.870;13.660;2023-12-20T14:02:53;6.30;66.80
53412;DHT22;39307;52.870;13.660;2023-12-20T14:05:20;6.30;66.80
53412;DHT22;39307;52.870;13.660;2023-12-20T14:07:48;6.30;66.90
53412;DHT22;39307;52.870;13.660;2023-12-20T14:10:17;6.30;66.90
53412;DHT22;39307;52.870;13.660;2023-12-20T14:12:44;6.20;66.80
53412;DHT22;39307;52.870;13.660;2023-12-20T14:15:11;6.20;67.00
53412;DHT22;39307;52.870;13.660;2023-12-20T14:17:39;6.30;66.90
53412;DHT22;39307;52.870;13.660;2023-12-20T14:20:07;6.30;66.70
53412;DHT22;39307;52.870;13.660;2023-12-20T14:22:35;6.30;66.70
53412;DHT22;39307;52.870;13.660;2023-12-20T14:25:03;6.20;66.60
53412;DHT22;39307;52.870;13.660;2023-12-20T14:27:30;6.20;66.80
53412;DHT22;39307;52.870;13.660;2023-12-20T14:29:57;6.20;66.80
53412;DHT22;39307;52.870;13.660;2023-12-20T14:32:24;6.20;66.70
53412;DHT22;39307;52.870;13.660;2023-12-20T14:34:51;6.20;66.80
53412;DHT22;39307;52.870;13.660;2023-12-20T14:37:18;6.20;66.70
53412;DHT22;39307;52.870;13.660;2023-12-20T14:39:45;6.30;66.80
53412;DHT22;39307;52.870;13.660;2023-12-20T14:42:12;6.20;66.60
53412;DHT22;39307;52.870;13.660;2023-12-20T14:44:42;6.20;66.50
53412;DHT22;39307;52.870;13.660;2023-12-20T14:47:09;6.30;66.60
53412;DHT22;39307;52.870;13.660;2023-12-20T14:49:36;6.20;66.70
53412;DHT22;39307;52.870;13.660;2023-12-20T14:52:02;6.30;66.90
53412;DHT22;39307;52.870;13.660;2023-12-20T14:54:30;6.20;66.90
53412;DHT22;39307;52.870;13.660;2023-12-20T14:56:58;6.20;67.00
53412;DHT22;39307;52.870;13.660;2023-12-20T14:59:26;6.30;66.70
53412;DHT22;39307;52.870;13.660;2023-12-20T15:01:52;6.20;66.90
53412;DHT22;39307;52.870;13.660;2023-12-20T15:04:20;6.20;66.90
53412;DHT22;39307;52.870;13.660;2023-12-20T15:06:47;6.20;67.00
53412;DHT22;39307;52.870;13.660;2023-12-20T15:09:13;6.20;66.80
53412;DHT22;39307;52.870;13.660;2023-12-20T15:11:40;6.20;66.90
53412;DHT22;39307;52.870;13.660;2023-12-20T15:14:07;6.20;66.70
53412;DHT22;39307;52.870;13.660;2023-12-20T15:16:35;6.20;66.70
53412;DHT22;39307;52.870;13.660;2023-12-20T15:19:02;6.20;66.90
53412;DHT22;39307;52.870;13.660;2023-12-20T15:21:29;6.20;66.90
53412;DHT22;39307;52.870;13.660;2023-12-20T15:23:56;6.30;66.70
53412;DHT22;39307;52.870;13.660;2023-12-20T15:26:23;6.20;66.70
53412;DHT22;39307;52.870;13.660;2023-12-20T15:28:50;6.20;66.60
53412;DHT22;39307;52.870;13.660;2023-12-20T15:31:17;6.20;66.70
53412;DHT22;39307;52.870;13.660;2023-12-20T15:33:44;6.20;66.80
53412;DHT22;39307;52.870;13.660;2023-12-20T15:36:11;6.20;66.60